sensor_id;sensor_type;location;lat;lon;timestamp;P1;durP1;ratioP1;P2;durP2;ratioP2
47866;SDS011;33628;50.806;11.586;2022-07-22T00:00:32;7.47;;;4.80;;
47866;SDS011;33628;50.806;11.586;2022-07-22T00:02:59;6.65;;;4.70;;
47866;SDS011;33628;50.806;11.586;2022-07-22T00:05:26;8.77;;;4.38;;
47866;SDS011;33628;50.806;11.586;2022-07-22T00:07:53;6.35;;;4.72;;
47866;SDS011;33628;50.806;11.586;2022-07-22T00:10:20;6.28;;;4.43;;
47866;SDS011;33628;50.806;11.586;2022-07-22T00:12:46;5.32;;;4.55;;
47866;SDS011;33628;50.806;11.586;2022-07-22T00:15:13;9.27;;;4.68;;
47866;SDS011;33628;50.806;11.586;2022-07-22T00:17:39;6.35;;;4.70;;
47866;SDS011;33628;50.806;11.586;2022-07-22T00:20:06;9.05;;;4.95;;
47866;SDS011;33628;50.806;11.586;2022-07-22T00:22:33;6.68;;;4.88;;
47866;SDS011;33628;50.806;11.586;2022-07-22T00:24:59;8.90;;;4.70;;
47866;SDS011;33628;50.806;11.586;2022-07-22T00:27:27;8.25;;;4.90;;
47866;SDS011;33628;50.806;11.586;2022-07-22T00:29:53;6.40;;;4.70;;
47866;SDS011;33628;50.806;11.586;2022-07-22T00:32:19;4.90;;;3.85;;
47866;SDS011;33628;50.806;11.586;2022-07-22T00:34:45;6.63;;;4.15;;
47866;SDS011;33628;50.806;11.586;2022-07-22T00:37:11;8.07;;;4.47;;
47866;SDS011;33628;50.806;11.586;2022-07-22T00:39:38;4.95;;;3.97;;
47866;SDS011;33628;50.806;11.586;2022-07-22T00:42:04;5.90;;;4.25;;
47866;SDS011;33628;50.806;11.586;2022-07-22T00:44:31;7.25;;;5.00;;
47866;SDS011;33628;50.806;11.586;2022-07-22T00:46:58;6.35;;;4.30;;
47866;SDS011;33628;50.806;11.586;2022-07-22T00:49:24;7.22;;;4.60;;
47866;SDS011;33628;50.806;11.586;2022-07-22T00:51:51;8.70;;;4.65;;
47866;SDS011;33628;50.806;11.586;2022-07-22T00:54:17;6.03;;;4.80;;
47866;SDS011;33628;50.806;11.586;2022-07-22T00:56:43;4.88;;;4.35;;
47866;SDS011;33628;50.806;11.586;2022-07-22T00:59:10;6.30;;;4.57;;
47866;SDS011;33628;50.806;11.586;2022-07-22T01:01:38;5.75;;;4.07;;
47866;SDS011;33628;50.806;11.586;2022-07-22T01:04:05;5.95;;;4.72;;
47866;SDS011;33628;50.806;11.586;2022-07-22T01:06:31;7.70;;;4.43;;
47866;SDS011;33628;50.806;11.586;2022-07-22T01:08:58;10.43;;;4.78;;
47866;SDS011;33628;50.806;11.586;2022-07-22T01:11:24;8.10;;;4.65;;
47866;SDS011;33628;50.806;11.586;2022-07-22T01:13:51;6.85;;;4.78;;
47866;SDS011;33628;50.806;11.586;2022-07-22T01:16:18;8.02;;;4.93;;
47866;SDS011;33628;50.806;11.586;2022-07-22T01:18:46;7.53;;;4.88;;
47866;SDS011;33628;50.806;11.586;2022-07-22T01:21:14;10.05;;;5.35;;
47866;SDS011;33628;50.806;11.586;2022-07-22T01:23:41;11.45;;;5.38;;
47866;SDS011;33628;50.806;11.586;2022-07-22T01:26:07;9.25;;;5.15;;
47866;SDS011;33628;50.806;11.586;2022-07-22T01:28:34;7.10;;;4.93;;
47866;SDS011;33628;50.806;11.586;2022-07-22T01:31:00;7.32;;;5.63;;
47866;SDS011;33628;50.806;11.586;2022-07-22T01:33:26;6.38;;;4.57;;
47866;SDS011;33628;50.806;11.586;2022-07-22T01:35:52;8.98;;;5.50;;
47866;SDS011;33628;50.806;11.586;2022-07-22T01:38:20;8.27;;;5.05;;
47866;SDS011;33628;50.806;11.586;2022-07-22T01:40:47;6.32;;;4.90;;
47866;SDS011;33628;50.806;11.586;2022-07-22T01:43:14;7.60;;;5.32;;
47866;SDS011;33628;50.806;11.586;2022-07-22T01:45:44;6.07;;;4.93;;
47866;SDS011;33628;50.806;11.586;2022-07-22T01:48:10;7.95;;;5.05;;
47866;SDS011;33628;50.806;11.586;2022-07-22T01:50:37;8.60;;;4.60;;
47866;SDS011;33628;50.806;11.586;2022-07-22T01:53:03;12.75;;;4.88;;
47866;SDS011;33628;50.806;11.586;2022-07-22T01:55:31;6.38;;;4.90;;
47866;SDS011;33628;50.806;11.586;2022-07-22T01:57:57;7.25;;;5.10;;
47866;SDS011;33628;50.806;11.586;2022-07-22T02:00:26;7.78;;;5.25;;
47866;SDS011;33628;50.806;11.586;2022-07-22T02:02:52;8.02;;;5.47;;
47866;SDS011;33628;50.806;11.586;2022-07-22T02:05:18;7.00;;;5.63;;
47866;SDS011;33628;50.806;11.586;2022-07-22T02:07:45;6.57;;;5.00;;
47866;SDS011;33628;50.806;11.586;2022-07-22T02:10:12;7.95;;;5.47;;
47866;SDS011;33628;50.806;11.586;2022-07-22T02:12:40;7.63;;;5.70;;
47866;SDS011;33628;50.806;11.586;2022-07-22T02:15:07;5.75;;;5.15;;
47866;SDS011;33628;50.806;11.586;2022-07-22T02:17:35;6.57;;;5.50;;
47866;SDS011;33628;50.806;11.586;2022-07-22T02:20:01;7.45;;;5.25;;
47866;SDS011;33628;50.806;11.586;2022-07-22T02:22:28;7.88;;;6.13;;
47866;SDS011;33628;50.806;11.586;2022-07-22T02:24:54;6.82;;;5.75;;
47866;SDS011;33628;50.806;11.586;2022-07-22T02:27:21;10.55;;;5.85;;
47866;SDS011;33628;50.806;11.586;2022-07-22T02:29:48;7.45;;;5.75;;
47866;SDS011;33628;50.806;11.586;2022-07-22T02:32:14;8.38;;;5.68;;
47866;SDS011;33628;50.806;11.586;2022-07-22T02:34:41;7.90;;;5.28;;
47866;SDS011;33628;50.806;11.586;2022-07-22T02:37:07;7.75;;;6.22;;
47866;SDS011;33628;50.806;11.586;2022-07-22T02:39:33;7.00;;;5.55;;
47866;SDS011;33628;50.806;11.586;2022-07-22T02:41:59;8.80;;;5.55;;
47866;SDS011;33628;50.806;11.586;2022-07-22T02:44:25;10.90;;;6.78;;
47866;SDS011;33628;50.806;11.586;2022-07-22T02:46:54;7.63;;;5.97;;
47866;SDS011;33628;50.806;11.586;2022-07-22T02:49:27;8.15;;;6.10;;
47866;SDS011;33628;50.806;11.586;2022-07-22T02:51:55;8.35;;;6.25;;
47866;SDS011;33628;50.806;11.586;2022-07-22T02:54:21;9.02;;;5.60;;
47866;SDS011;33628;50.806;11.586;2022-07-22T02:56:50;7.40;;;5.82;;
47866;SDS011;33628;50.806;11.586;2022-07-22T02:59:16;6.80;;;5.93;;
47866;SDS011;33628;50.806;11.586;2022-07-22T03:01:42;8.23;;;6.10;;
47866;SDS011;33628;50.806;11.586;2022-07-22T03:04:10;7.57;;;6.00;;
47866;SDS011;33628;50.806;11.586;2022-07-22T03:06:38;11.32;;;6.90;;
47866;SDS011;33628;50.806;11.586;2022-07-22T03:09:11;8.82;;;6.10;;
47866;SDS011;33628;50.806;11.586;2022-07-22T03:11:41;12.43;;;6.30;;
47866;SDS011;33628;50.806;11.586;2022-07-22T03:14:08;9.82;;;6.70;;
47866;SDS011;33628;50.806;11.586;2022-07-22T03:16:35;8.52;;;6.88;;
47866;SDS011;33628;50.806;11.586;2022-07-22T03:19:01;12.07;;;6.53;;
47866;SDS011;33628;50.806;11.586;2022-07-22T03:21:29;12.43;;;6.78;;
47866;SDS011;33628;50.806;11.586;2022-07-22T03:23:55;7.97;;;6.70;;
47866;SDS011;33628;50.806;11.586;2022-07-22T03:26:22;7.85;;;6.35;;
47866;SDS011;33628;50.806;11.586;2022-07-22T03:28:48;12.52;;;6.90;;
47866;SDS011;33628;50.806;11.586;2022-07-22T03:31:15;9.35;;;6.60;;
47866;SDS011;33628;50.806;11.586;2022-07-22T03:33:42;7.28;;;6.55;;
47866;SDS011;33628;50.806;11.586;2022-07-22T03:36:09;7.82;;;6.47;;
47866;SDS011;33628;50.806;11.586;2022-07-22T03:38:39;7.32;;;6.38;;
47866;SDS011;33628;50.806;11.586;2022-07-22T03:41:06;7.72;;;6.18;;
47866;SDS011;33628;50.806;11.586;2022-07-22T03:43:32;9.70;;;6.25;;
47866;SDS011;33628;50.806;11.586;2022-07-22T03:46:01;10.25;;;7.10;;
47866;SDS011;33628;50.806;11.586;2022-07-22T03:48:30;8.40;;;6.68;;
47866;SDS011;33628;50.806;11.586;2022-07-22T03:50:56;7.00;;;6.30;;
47866;SDS011;33628;50.806;11.586;2022-07-22T03:53:25;11.85;;;6.72;;
47866;SDS011;33628;50.806;11.586;2022-07-22T03:55:52;7.40;;;6.60;;
47866;SDS011;33628;50.806;11.586;2022-07-22T03:58:19;8.32;;;7.00;;
47866;SDS011;33628;50.806;11.586;2022-07-22T04:00:47;8.18;;;6.78;;
47866;SDS011;33628;50.806;11.586;2022-07-22T04:03:13;12.05;;;7.07;;
47866;SDS011;33628;50.806;11.586;2022-07-22T04:06:05;10.15;;;7.50;;
47866;SDS011;33628;50.806;11.586;2022-07-22T04:08:52;8.27;;;6.93;;
47866;SDS011;33628;50.806;11.586;2022-07-22T04:11:21;11.07;;;7.07;;
47866;SDS011;33628;50.806;11.586;2022-07-22T04:13:47;10.38;;;7.32;;
47866;SDS011;33628;50.806;11.586;2022-07-22T04:16:14;11.80;;;7.75;;
47866;SDS011;33628;50.806;11.586;2022-07-22T04:18:49;13.23;;;7.63;;
47866;SDS011;33628;50.806;11.586;2022-07-22T04:21:24;15.38;;;7.38;;
47866;SDS011;33628;50.806;11.586;2022-07-22T04:23:54;8.57;;;7.50;;
47866;SDS011;33628;50.806;11.586;2022-07-22T04:26:27;10.30;;;8.07;;
47866;SDS011;33628;50.806;11.586;2022-07-22T04:28:54;11.98;;;8.20;;
47866;SDS011;33628;50.806;11.586;2022-07-22T04:31:20;20.48;;;7.78;;
47866;SDS011;33628;50.806;11.586;2022-07-22T04:33:52;11.45;;;7.75;;
47866;SDS011;33628;50.806;11.586;2022-07-22T04:36:19;11.55;;;7.82;;
47866;SDS011;33628;50.806;11.586;2022-07-22T04:38:45;15.10;;;7.85;;
47866;SDS011;33628;50.806;11.586;2022-07-22T04:41:12;9.77;;;8.02;;
47866;SDS011;33628;50.806;11.586;2022-07-22T04:43:39;11.90;;;8.00;;
47866;SDS011;33628;50.806;11.586;2022-07-22T04:46:07;10.05;;;8.15;;
47866;SDS011;33628;50.806;11.586;2022-07-22T04:48:37;11.32;;;7.72;;
47866;SDS011;33628;50.806;11.586;2022-07-22T04:51:03;12.63;;;8.25;;
47866;SDS011;33628;50.806;11.586;2022-07-22T04:53:31;10.90;;;6.70;;
47866;SDS011;33628;50.806;11.586;2022-07-22T04:55:58;10.07;;;7.35;;
47866;SDS011;33628;50.806;11.586;2022-07-22T04:58:24;10.25;;;7.57;;
47866;SDS011;33628;50.806;11.586;2022-07-22T05:00:52;8.25;;;7.43;;
47866;SDS011;33628;50.806;11.586;2022-07-22T05:03:18;10.10;;;7.78;;
47866;SDS011;33628;50.806;11.586;2022-07-22T05:05:45;10.70;;;7.45;;
47866;SDS011;33628;50.806;11.586;2022-07-22T05:08:12;9.45;;;7.22;;
47866;SDS011;33628;50.806;11.586;2022-07-22T05:10:39;13.35;;;7.47;;
47866;SDS011;33628;50.806;11.586;2022-07-22T05:13:05;10.32;;;7.78;;
47866;SDS011;33628;50.806;11.586;2022-07-22T05:15:33;10.88;;;7.68;;
47866;SDS011;33628;50.806;11.586;2022-07-22T05:18:01;10.80;;;7.65;;
47866;SDS011;33628;50.806;11.586;2022-07-22T05:20:30;11.15;;;7.93;;
47866;SDS011;33628;50.806;11.586;2022-07-22T05:22:58;10.02;;;7.47;;
47866;SDS011;33628;50.806;11.586;2022-07-22T05:25:27;10.85;;;7.90;;
47866;SDS011;33628;50.806;11.586;2022-07-22T05:27:54;10.52;;;7.03;;
47866;SDS011;33628;50.806;11.586;2022-07-22T05:30:32;9.70;;;7.50;;
47866;SDS011;33628;50.806;11.586;2022-07-22T05:32:59;9.18;;;7.57;;
47866;SDS011;33628;50.806;11.586;2022-07-22T05:35:46;10.32;;;7.57;;
47866;SDS011;33628;50.806;11.586;2022-07-22T05:38:13;11.90;;;7.13;;
47866;SDS011;33628;50.806;11.586;2022-07-22T05:40:39;12.20;;;7.72;;
47866;SDS011;33628;50.806;11.586;2022-07-22T05:43:05;11.25;;;7.65;;
47866;SDS011;33628;50.806;11.586;2022-07-22T05:45:32;10.05;;;7.63;;
47866;SDS011;33628;50.806;11.586;2022-07-22T05:47:59;11.35;;;7.68;;
47866;SDS011;33628;50.806;11.586;2022-07-22T05:50:28;8.32;;;7.25;;
47866;SDS011;33628;50.806;11.586;2022-07-22T05:52:55;9.98;;;7.32;;
47866;SDS011;33628;50.806;11.586;2022-07-22T05:55:21;7.90;;;7.00;;
47866;SDS011;33628;50.806;11.586;2022-07-22T05:57:49;7.93;;;7.05;;
47866;SDS011;33628;50.806;11.586;2022-07-22T06:00:15;9.15;;;6.68;;
47866;SDS011;33628;50.806;11.586;2022-07-22T06:02:43;9.18;;;6.53;;
47866;SDS011;33628;50.806;11.586;2022-07-22T06:05:16;8.50;;;6.60;;
47866;SDS011;33628;50.806;11.586;2022-07-22T06:07:42;10.60;;;7.28;;
47866;SDS011;33628;50.806;11.586;2022-07-22T06:10:13;11.88;;;6.90;;
47866;SDS011;33628;50.806;11.586;2022-07-22T06:12:39;7.85;;;6.20;;
47866;SDS011;33628;50.806;11.586;2022-07-22T06:15:06;8.43;;;6.30;;
47866;SDS011;33628;50.806;11.586;2022-07-22T06:17:33;7.93;;;6.50;;
47866;SDS011;33628;50.806;11.586;2022-07-22T06:20:00;8.43;;;6.25;;
47866;SDS011;33628;50.806;11.586;2022-07-22T06:22:29;6.25;;;5.60;;
47866;SDS011;33628;50.806;11.586;2022-07-22T06:24:55;7.93;;;6.55;;
47866;SDS011;33628;50.806;11.586;2022-07-22T06:27:22;7.55;;;5.95;;
47866;SDS011;33628;50.806;11.586;2022-07-22T06:29:49;6.75;;;5.72;;
47866;SDS011;33628;50.806;11.586;2022-07-22T06:32:16;8.52;;;5.68;;
47866;SDS011;33628;50.806;11.586;2022-07-22T06:34:43;10.82;;;5.55;;
47866;SDS011;33628;50.806;11.586;2022-07-22T06:37:10;12.10;;;5.03;;
47866;SDS011;33628;50.806;11.586;2022-07-22T06:39:37;6.55;;;4.35;;
47866;SDS011;33628;50.806;11.586;2022-07-22T06:42:24;5.15;;;4.65;;
47866;SDS011;33628;50.806;11.586;2022-07-22T06:45:08;5.72;;;4.03;;
47866;SDS011;33628;50.806;11.586;2022-07-22T06:47:49;5.95;;;4.20;;
47866;SDS011;33628;50.806;11.586;2022-07-22T06:50:17;4.68;;;3.83;;
47866;SDS011;33628;50.806;11.586;2022-07-22T06:52:43;4.28;;;3.88;;
47866;SDS011;33628;50.806;11.586;2022-07-22T06:55:11;5.93;;;3.60;;
47866;SDS011;33628;50.806;11.586;2022-07-22T06:57:44;4.80;;;3.50;;
47866;SDS011;33628;50.806;11.586;2022-07-22T07:00:11;4.90;;;3.47;;
47866;SDS011;33628;50.806;11.586;2022-07-22T07:02:58;5.07;;;2.92;;
47866;SDS011;33628;50.806;11.586;2022-07-22T07:05:25;5.88;;;2.30;;
47866;SDS011;33628;50.806;11.586;2022-07-22T07:07:53;2.55;;;2.00;;
47866;SDS011;33628;50.806;11.586;2022-07-22T07:10:21;1.92;;;1.75;;
47866;SDS011;33628;50.806;11.586;2022-07-22T07:12:54;3.15;;;1.45;;
47866;SDS011;33628;50.806;11.586;2022-07-22T07:15:25;1.80;;;1.67;;
47866;SDS011;33628;50.806;11.586;2022-07-22T07:17:59;1.77;;;1.45;;
47866;SDS011;33628;50.806;11.586;2022-07-22T07:20:26;1.90;;;1.75;;
47866;SDS011;33628;50.806;11.586;2022-07-22T07:22:53;2.65;;;1.70;;
47866;SDS011;33628;50.806;11.586;2022-07-22T07:25:21;1.90;;;1.80;;
47866;SDS011;33628;50.806;11.586;2022-07-22T07:27:47;1.98;;;1.50;;
47866;SDS011;33628;50.806;11.586;2022-07-22T07:30:15;1.65;;;1.55;;
47866;SDS011;33628;50.806;11.586;2022-07-22T07:32:42;1.55;;;1.45;;
47866;SDS011;33628;50.806;11.586;2022-07-22T07:35:09;1.50;;;1.40;;
47866;SDS011;33628;50.806;11.586;2022-07-22T07:37:35;1.92;;;1.83;;
47866;SDS011;33628;50.806;11.586;2022-07-22T07:40:02;1.50;;;1.15;;
47866;SDS011;33628;50.806;11.586;2022-07-22T07:42:30;1.38;;;1.27;;
47866;SDS011;33628;50.806;11.586;2022-07-22T07:44:57;2.35;;;1.50;;
47866;SDS011;33628;50.806;11.586;2022-07-22T07:47:23;2.72;;;1.27;;
47866;SDS011;33628;50.806;11.586;2022-07-22T07:49:50;1.90;;;1.13;;
47866;SDS011;33628;50.806;11.586;2022-07-22T07:52:16;1.45;;;1.25;;
47866;SDS011;33628;50.806;11.586;2022-07-22T07:54:43;1.15;;;1.02;;
47866;SDS011;33628;50.806;11.586;2022-07-22T07:57:10;1.40;;;1.23;;
47866;SDS011;33628;50.806;11.586;2022-07-22T07:59:39;1.75;;;1.05;;
47866;SDS011;33628;50.806;11.586;2022-07-22T08:02:06;1.00;;;1.00;;
47866;SDS011;33628;50.806;11.586;2022-07-22T08:04:34;1.27;;;1.10;;
47866;SDS011;33628;50.806;11.586;2022-07-22T08:07:02;1.40;;;1.30;;
47866;SDS011;33628;50.806;11.586;2022-07-22T09:02:17;2.70;;;1.30;;
47866;SDS011;33628;50.806;11.586;2022-07-22T09:04:52;1.30;;;1.20;;
47866;SDS011;33628;50.806;11.586;2022-07-22T09:07:22;1.38;;;1.20;;
47866;SDS011;33628;50.806;11.586;2022-07-22T09:09:55;1.50;;;1.37;;
47866;SDS011;33628;50.806;11.586;2022-07-22T09:12:21;1.95;;;1.52;;
47866;SDS011;33628;50.806;11.586;2022-07-22T09:15:10;2.15;;;1.40;;
47866;SDS011;33628;50.806;11.586;2022-07-22T09:17:53;1.83;;;1.67;;
47866;SDS011;33628;50.806;11.586;2022-07-22T09:20:43;1.70;;;1.60;;
47866;SDS011;33628;50.806;11.586;2022-07-22T09:23:28;1.50;;;1.40;;
47866;SDS011;33628;50.806;11.586;2022-07-22T09:26:05;1.52;;;1.40;;
47866;SDS011;33628;50.806;11.586;2022-07-22T09:28:57;1.42;;;1.30;;
47866;SDS011;33628;50.806;11.586;2022-07-22T09:31:27;1.58;;;1.48;;
47866;SDS011;33628;50.806;11.586;2022-07-22T09:34:16;1.50;;;1.40;;
47866;SDS011;33628;50.806;11.586;2022-07-22T09:36:55;1.40;;;1.30;;
47866;SDS011;33628;50.806;11.586;2022-07-22T09:39:25;1.42;;;1.30;;
47866;SDS011;33628;50.806;11.586;2022-07-22T09:41:58;2.03;;;1.50;;
47866;SDS011;33628;50.806;11.586;2022-07-22T09:44:26;2.42;;;1.30;;
47866;SDS011;33628;50.806;11.586;2022-07-22T09:46:54;4.28;;;1.40;;
47866;SDS011;33628;50.806;11.586;2022-07-22T09:49:41;3.45;;;1.38;;
47866;SDS011;33628;50.806;11.586;2022-07-22T09:52:47;1.92;;;1.48;;
47866;SDS011;33628;50.806;11.586;2022-07-22T09:55:23;1.40;;;1.30;;
47866;SDS011;33628;50.806;11.586;2022-07-22T09:57:51;1.70;;;1.60;;
47866;SDS011;33628;50.806;11.586;2022-07-22T10:00:19;1.73;;;1.63;;
47866;SDS011;33628;50.806;11.586;2022-07-22T10:02:55;1.85;;;1.73;;
47866;SDS011;33628;50.806;11.586;2022-07-22T10:05:24;1.30;;;1.20;;
47866;SDS011;33628;50.806;11.586;2022-07-22T10:07:53;1.45;;;1.10;;
47866;SDS011;33628;50.806;11.586;2022-07-22T10:10:20;2.92;;;1.40;;
47866;SDS011;33628;50.806;11.586;2022-07-22T10:12:49;1.17;;;1.08;;
47866;SDS011;33628;50.806;11.586;2022-07-22T10:15:16;2.47;;;1.58;;
47866;SDS011;33628;50.806;11.586;2022-07-22T10:17:44;1.98;;;1.30;;
47866;SDS011;33628;50.806;11.586;2022-07-22T10:20:13;2.85;;;1.33;;
47866;SDS011;33628;50.806;11.586;2022-07-22T10:22:51;3.05;;;1.42;;
47866;SDS011;33628;50.806;11.586;2022-07-22T10:25:20;3.03;;;1.52;;
47866;SDS011;33628;50.806;11.586;2022-07-22T10:27:48;1.52;;;1.20;;
47866;SDS011;33628;50.806;11.586;2022-07-22T10:30:16;1.48;;;1.38;;
47866;SDS011;33628;50.806;11.586;2022-07-22T10:32:43;1.40;;;1.30;;
47866;SDS011;33628;50.806;11.586;2022-07-22T10:35:23;3.35;;;1.20;;
47866;SDS011;33628;50.806;11.586;2022-07-22T10:37:59;3.25;;;1.50;;
47866;SDS011;33628;50.806;11.586;2022-07-22T10:40:27;1.60;;;1.50;;
47866;SDS011;33628;50.806;11.586;2022-07-22T10:43:04;2.40;;;2.20;;
47866;SDS011;33628;50.806;11.586;2022-07-22T10:45:34;1.73;;;1.40;;
47866;SDS011;33628;50.806;11.586;2022-07-22T10:48:04;1.73;;;1.20;;
47866;SDS011;33628;50.806;11.586;2022-07-22T10:50:40;2.33;;;1.50;;
47866;SDS011;33628;50.806;11.586;2022-07-22T10:53:10;1.50;;;1.40;;
47866;SDS011;33628;50.806;11.586;2022-07-22T10:55:38;2.47;;;1.40;;
47866;SDS011;33628;50.806;11.586;2022-07-22T11:01:13;1.48;;;1.30;;
47866;SDS011;33628;50.806;11.586;2022-07-22T11:03:41;2.70;;;1.27;;
47866;SDS011;33628;50.806;11.586;2022-07-22T11:06:13;1.73;;;1.25;;
47866;SDS011;33628;50.806;11.586;2022-07-22T11:08:51;1.27;;;1.08;;
47866;SDS011;33628;50.806;11.586;2022-07-22T11:11:18;2.15;;;1.42;;
47866;SDS011;33628;50.806;11.586;2022-07-22T11:13:56;1.42;;;1.27;;
47866;SDS011;33628;50.806;11.586;2022-07-22T11:16:23;1.70;;;1.55;;
47866;SDS011;33628;50.806;11.586;2022-07-22T11:18:51;1.60;;;1.50;;
47866;SDS011;33628;50.806;11.586;2022-07-22T11:21:19;2.60;;;1.77;;
47866;SDS011;33628;50.806;11.586;2022-07-22T11:23:47;2.80;;;1.70;;
47866;SDS011;33628;50.806;11.586;2022-07-22T11:26:17;2.30;;;1.77;;
47866;SDS011;33628;50.806;11.586;2022-07-22T11:28:45;2.50;;;1.98;;
47866;SDS011;33628;50.806;11.586;2022-07-22T11:31:14;3.33;;;1.98;;
47866;SDS011;33628;50.806;11.586;2022-07-22T11:33:41;1.65;;;1.55;;
47866;SDS011;33628;50.806;11.586;2022-07-22T11:36:08;2.70;;;1.33;;
47866;SDS011;33628;50.806;11.586;2022-07-22T11:38:41;1.77;;;1.50;;
47866;SDS011;33628;50.806;11.586;2022-07-22T11:41:09;4.28;;;1.92;;
47866;SDS011;33628;50.806;11.586;2022-07-22T11:43:40;1.67;;;1.42;;
47866;SDS011;33628;50.806;11.586;2022-07-22T11:46:07;2.60;;;1.70;;
47866;SDS011;33628;50.806;11.586;2022-07-22T11:48:33;2.50;;;1.67;;
47866;SDS011;33628;50.806;11.586;2022-07-22T11:51:00;3.53;;;1.65;;
47866;SDS011;33628;50.806;11.586;2022-07-22T11:53:26;6.82;;;1.60;;
47866;SDS011;33628;50.806;11.586;2022-07-22T11:55:55;2.90;;;1.60;;
47866;SDS011;33628;50.806;11.586;2022-07-22T11:58:32;2.85;;;1.85;;
47866;SDS011;33628;50.806;11.586;2022-07-22T12:01:00;3.78;;;1.60;;
47866;SDS011;33628;50.806;11.586;2022-07-22T12:03:27;1.67;;;1.58;;
47866;SDS011;33628;50.806;11.586;2022-07-22T12:05:53;1.70;;;1.60;;
47866;SDS011;33628;50.806;11.586;2022-07-22T12:08:20;3.45;;;2.10;;
47866;SDS011;33628;50.806;11.586;2022-07-22T12:10:49;2.80;;;2.10;;
47866;SDS011;33628;50.806;11.586;2022-07-22T12:13:16;2.72;;;1.70;;
47866;SDS011;33628;50.806;11.586;2022-07-22T12:15:43;4.20;;;2.00;;
47866;SDS011;33628;50.806;11.586;2022-07-22T12:18:20;4.90;;;2.17;;
47866;SDS011;33628;50.806;11.586;2022-07-22T12:20:47;2.90;;;2.15;;
47866;SDS011;33628;50.806;11.586;2022-07-22T12:23:14;4.28;;;2.15;;
47866;SDS011;33628;50.806;11.586;2022-07-22T12:25:50;4.93;;;2.33;;
47866;SDS011;33628;50.806;11.586;2022-07-22T12:28:17;1.88;;;1.70;;
47866;SDS011;33628;50.806;11.586;2022-07-22T12:30:44;5.60;;;2.60;;
47866;SDS011;33628;50.806;11.586;2022-07-22T12:33:13;3.20;;;2.42;;
47866;SDS011;33628;50.806;11.586;2022-07-22T12:35:41;2.75;;;2.00;;
47866;SDS011;33628;50.806;11.586;2022-07-22T12:38:09;5.57;;;2.40;;
47866;SDS011;33628;50.806;11.586;2022-07-22T12:40:36;3.25;;;2.40;;
47866;SDS011;33628;50.806;11.586;2022-07-22T12:43:03;4.53;;;2.33;;
47866;SDS011;33628;50.806;11.586;2022-07-22T12:45:31;4.07;;;2.22;;
47866;SDS011;33628;50.806;11.586;2022-07-22T12:48:04;3.60;;;2.13;;
47866;SDS011;33628;50.806;11.586;2022-07-22T12:50:34;5.80;;;2.70;;
47866;SDS011;33628;50.806;11.586;2022-07-22T12:53:03;3.85;;;2.00;;
47866;SDS011;33628;50.806;11.586;2022-07-22T12:55:31;3.15;;;2.33;;
47866;SDS011;33628;50.806;11.586;2022-07-22T12:57:59;4.55;;;2.30;;
47866;SDS011;33628;50.806;11.586;2022-07-22T13:00:26;2.83;;;2.15;;
47866;SDS011;33628;50.806;11.586;2022-07-22T13:02:55;5.45;;;2.45;;
47866;SDS011;33628;50.806;11.586;2022-07-22T13:05:24;4.35;;;2.00;;
47866;SDS011;33628;50.806;11.586;2022-07-22T13:07:54;2.95;;;2.10;;
47866;SDS011;33628;50.806;11.586;2022-07-22T13:10:25;4.97;;;2.30;;
47866;SDS011;33628;50.806;11.586;2022-07-22T13:12:53;2.78;;;2.42;;
47866;SDS011;33628;50.806;11.586;2022-07-22T13:15:20;2.85;;;2.38;;
47866;SDS011;33628;50.806;11.586;2022-07-22T13:17:49;3.85;;;1.95;;
47866;SDS011;33628;50.806;11.586;2022-07-22T13:20:15;2.30;;;2.10;;
47866;SDS011;33628;50.806;11.586;2022-07-22T13:22:45;4.43;;;2.38;;
47866;SDS011;33628;50.806;11.586;2022-07-22T13:25:12;2.80;;;2.40;;
47866;SDS011;33628;50.806;11.586;2022-07-22T13:27:40;4.20;;;2.15;;
47866;SDS011;33628;50.806;11.586;2022-07-22T13:30:06;6.20;;;2.30;;
47866;SDS011;33628;50.806;11.586;2022-07-22T13:32:33;9.13;;;2.92;;
47866;SDS011;33628;50.806;11.586;2022-07-22T13:34:59;3.30;;;2.72;;
47866;SDS011;33628;50.806;11.586;2022-07-22T13:37:26;3.08;;;2.45;;
47866;SDS011;33628;50.806;11.586;2022-07-22T13:39:53;4.05;;;2.60;;
47866;SDS011;33628;50.806;11.586;2022-07-22T13:42:19;3.75;;;2.50;;
47866;SDS011;33628;50.806;11.586;2022-07-22T13:44:49;5.55;;;2.75;;
47866;SDS011;33628;50.806;11.586;2022-07-22T13:47:20;8.32;;;2.70;;
47866;SDS011;33628;50.806;11.586;2022-07-22T13:49:46;4.55;;;2.88;;
47866;SDS011;33628;50.806;11.586;2022-07-22T13:52:14;4.90;;;3.47;;
47866;SDS011;33628;50.806;11.586;2022-07-22T13:54:44;3.63;;;3.03;;
47866;SDS011;33628;50.806;11.586;2022-07-22T13:57:10;3.22;;;2.47;;
47866;SDS011;33628;50.806;11.586;2022-07-22T13:59:37;5.50;;;2.80;;
47866;SDS011;33628;50.806;11.586;2022-07-22T14:02:05;3.80;;;2.72;;
47866;SDS011;33628;50.806;11.586;2022-07-22T14:04:32;3.38;;;2.60;;
47866;SDS011;33628;50.806;11.586;2022-07-22T14:07:01;2.97;;;2.38;;
47866;SDS011;33628;50.806;11.586;2022-07-22T14:09:27;2.47;;;2.17;;
47866;SDS011;33628;50.806;11.586;2022-07-22T14:11:54;5.25;;;2.50;;
47866;SDS011;33628;50.806;11.586;2022-07-22T14:14:21;9.32;;;2.75;;
47866;SDS011;33628;50.806;11.586;2022-07-22T14:16:51;3.72;;;2.60;;
47866;SDS011;33628;50.806;11.586;2022-07-22T14:19:19;3.97;;;2.80;;
47866;SDS011;33628;50.806;11.586;2022-07-22T14:21:46;5.18;;;2.47;;
47866;SDS011;33628;50.806;11.586;2022-07-22T14:24:13;3.92;;;2.47;;
47866;SDS011;33628;50.806;11.586;2022-07-22T14:26:39;4.10;;;2.63;;
47866;SDS011;33628;50.806;11.586;2022-07-22T14:29:09;3.08;;;2.80;;
47866;SDS011;33628;50.806;11.586;2022-07-22T14:31:35;6.03;;;2.78;;
47866;SDS011;33628;50.806;11.586;2022-07-22T14:34:02;5.00;;;2.95;;
47866;SDS011;33628;50.806;11.586;2022-07-22T14:36:29;5.13;;;2.97;;
47866;SDS011;33628;50.806;11.586;2022-07-22T14:38:55;4.05;;;2.58;;
47866;SDS011;33628;50.806;11.586;2022-07-22T14:41:22;3.88;;;2.50;;
47866;SDS011;33628;50.806;11.586;2022-07-22T14:43:48;3.22;;;2.92;;
47866;SDS011;33628;50.806;11.586;2022-07-22T14:46:14;6.53;;;2.55;;
47866;SDS011;33628;50.806;11.586;2022-07-22T14:48:40;3.78;;;2.60;;
47866;SDS011;33628;50.806;11.586;2022-07-22T14:51:07;5.00;;;3.00;;
47866;SDS011;33628;50.806;11.586;2022-07-22T14:53:34;5.35;;;2.65;;
47866;SDS011;33628;50.806;11.586;2022-07-22T14:56:01;6.88;;;2.70;;
47866;SDS011;33628;50.806;11.586;2022-07-22T14:58:28;3.50;;;2.83;;
47866;SDS011;33628;50.806;11.586;2022-07-22T15:00:55;3.40;;;2.40;;
47866;SDS011;33628;50.806;11.586;2022-07-22T15:03:21;5.15;;;2.72;;
47866;SDS011;33628;50.806;11.586;2022-07-22T15:05:47;4.20;;;2.83;;
47866;SDS011;33628;50.806;11.586;2022-07-22T15:08:16;3.97;;;3.20;;
47866;SDS011;33628;50.806;11.586;2022-07-22T15:10:44;6.63;;;3.42;;
47866;SDS011;33628;50.806;11.586;2022-07-22T15:13:11;6.15;;;2.65;;
47866;SDS011;33628;50.806;11.586;2022-07-22T15:15:37;4.80;;;3.20;;
47866;SDS011;33628;50.806;11.586;2022-07-22T15:18:03;5.10;;;3.10;;
47866;SDS011;33628;50.806;11.586;2022-07-22T15:20:30;4.32;;;2.90;;
47866;SDS011;33628;50.806;11.586;2022-07-22T15:22:56;5.53;;;2.95;;
47866;SDS011;33628;50.806;11.586;2022-07-22T15:25:22;9.50;;;3.15;;
47866;SDS011;33628;50.806;11.586;2022-07-22T15:27:51;6.63;;;3.00;;
47866;SDS011;33628;50.806;11.586;2022-07-22T15:30:17;7.30;;;3.38;;
47866;SDS011;33628;50.806;11.586;2022-07-22T15:32:45;2.90;;;2.55;;
47866;SDS011;33628;50.806;11.586;2022-07-22T15:35:11;4.75;;;2.80;;
47866;SDS011;33628;50.806;11.586;2022-07-22T15:37:37;4.30;;;2.72;;